Time;durP1;ratioP1;P1;durP2;ratioP2;P2;SDS_P1;SDS_P2;PMS_P1;PMS_P2;Temp;Humidity;BMP_temperature;BMP_pressure;BME280_temperature;BME280_humidity;BME280_pressure;Samples;Min_cycle;Max_cycle;Signal;HPM_P1;HPM_P2
2023/07/28 00:00:06;;;;;;;6.35;2.63;;;17.50;99.90;;;;;;5035535;28;20021;-63
2023/07/28 00:02:31;;;;;;;5.18;1.98;;;17.50;99.90;;;;;;5037376;28;20047;-63
2023/07/28 00:04:57;;;;;;;4.20;2.30;;;17.50;99.90;;;;;;5038287;28;20569;-63
2023/07/28 00:07:22;;;;;;;4.82;2.10;;;17.50;99.90;;;;;;5034481;28;20052;-63
2023/07/28 00:09:48;;;;;;;2.83;2.05;;;17.60;99.90;;;;;;5039281;28;20028;-63
2023/07/28 00:12:13;;;;;;;8.55;2.40;;;17.60;99.90;;;;;;5034969;28;20025;-64
2023/07/28 00:14:39;;;;;;;3.88;1.90;;;17.60;99.90;;;;;;5038487;28;20031;-64
2023/07/28 00:17:05;;;;;;;6.07;2.42;;;17.70;99.90;;;;;;5033183;28;20045;-63
2023/07/28 00:19:30;;;;;;;6.55;2.30;;;17.70;99.90;;;;;;5033160;28;20101;-62
2023/07/28 00:21:56;;;;;;;7.93;3.22;;;17.70;99.90;;;;;;5035746;28;20071;-63
2023/07/28 00:24:22;;;;;;;5.50;2.10;;;17.60;99.90;;;;;;5037705;28;20033;-63
2023/07/28 00:26:47;;;;;;;6.90;2.53;;;17.60;99.90;;;;;;5034440;28;20104;-63
2023/07/28 00:29:13;;;;;;;13.85;2.55;;;17.60;99.90;;;;;;5034996;28;20033;-63
2023/07/28 00:31:38;;;;;;;5.82;2.13;;;17.60;99.90;;;;;;5035078;28;20050;-63
2023/07/28 00:34:04;;;;;;;4.72;2.50;;;17.60;99.90;;;;;;5030843;28;20488;-63
2023/07/28 00:36:30;;;;;;;3.67;1.80;;;17.60;99.90;;;;;;5037452;28;20033;-62
2023/07/28 00:38:56;;;;;;;6.53;2.30;;;17.60;99.90;;;;;;5048812;28;20056;-63
2023/07/28 00:41:22;;;;;;;3.78;2.40;;;17.60;99.90;;;;;;5036288;28;20527;-63
2023/07/28 00:43:48;;;;;;;2.58;1.67;;;17.60;99.90;;;;;;5041414;28;20057;-63
2023/07/28 00:46:14;;;;;;;3.92;1.98;;;17.60;99.90;;;;;;5036529;28;20056;-63
2023/07/28 00:48:40;;;;;;;4.90;1.95;;;17.70;99.90;;;;;;5038524;28;20100;-63
2023/07/28 00:51:07;;;;;;;3.05;1.67;;;17.70;99.90;;;;;;5032038;28;20045;-63
2023/07/28 00:53:32;;;;;;;7.85;2.13;;;17.70;99.90;;;;;;5036777;28;20013;-63
2023/07/28 00:55:58;;;;;;;10.98;1.88;;;17.60;99.90;;;;;;5034075;28;20440;-63
2023/07/28 00:58:24;;;;;;;3.28;1.65;;;17.60;99.90;;;;;;5034092;28;20029;-63
2023/07/28 01:00:50;;;;;;;8.23;2.38;;;17.50;99.90;;;;;;5034742;28;20036;-64
2023/07/28 01:03:18;;;;;;;7.25;2.45;;;17.60;99.90;;;;;;5034565;28;20025;-64
2023/07/28 01:06:14;;;;;;;3.60;2.00;;;17.60;99.90;;;;;;5031218;28;20026;-65
2023/07/28 01:08:55;;;;;;;3.63;1.95;;;17.70;99.90;;;;;;5030156;28;20037;-65
2023/07/28 01:11:21;;;;;;;8.15;2.13;;;17.70;99.90;;;;;;5036030;28;20052;-64
2023/07/28 01:13:47;;;;;;;4.35;1.70;;;17.70;99.90;;;;;;5029373;28;20034;-65
2023/07/28 01:16:13;;;;;;;2.92;1.90;;;17.70;99.90;;;;;;5036421;28;20033;-64
2023/07/28 01:18:38;;;;;;;5.28;2.10;;;17.70;99.90;;;;;;5029824;28;20086;-64
2023/07/28 01:21:09;;;;;;;4.55;1.73;;;17.70;99.90;;;;;;5030955;28;20045;-64
2023/07/28 01:24:05;;;;;;;4.00;2.08;;;17.70;99.90;;;;;;5035303;28;20033;-64
2023/07/28 01:26:35;;;;;;;2.78;1.90;;;17.70;99.90;;;;;;5033794;28;20310;-64
2023/07/28 01:29:03;;;;;;;2.28;1.50;;;17.70;99.90;;;;;;5031437;28;20151;-65
2023/07/28 01:31:29;;;;;;;6.55;2.20;;;17.70;99.90;;;;;;5033322;28;20057;-64
2023/07/28 01:33:54;;;;;;;4.30;1.90;;;17.70;99.90;;;;;;5035408;28;20539;-65
2023/07/28 01:36:20;;;;;;;2.88;1.80;;;17.70;99.90;;;;;;5031661;28;20030;-64
2023/07/28 01:38:45;;;;;;;3.58;2.00;;;17.70;99.90;;;;;;5032495;28;20035;-64
2023/07/28 01:41:11;;;;;;;5.38;2.08;;;17.70;99.90;;;;;;5047509;28;20067;-64
2023/07/28 01:43:36;;;;;;;4.45;2.30;;;17.70;99.90;;;;;;5039869;28;20036;-64
2023/07/28 01:46:02;;;;;;;8.20;2.55;;;17.70;99.90;;;;;;5032767;28;20029;-64
2023/07/28 01:48:27;;;;;;;5.75;1.67;;;17.70;99.90;;;;;;5033499;28;20036;-64
2023/07/28 01:50:53;;;;;;;5.95;1.92;;;17.70;99.90;;;;;;5028907;28;20025;-64
2023/07/28 01:53:18;;;;;;;4.95;1.75;;;17.80;99.90;;;;;;5035612;28;20021;-64
2023/07/28 01:55:44;;;;;;;3.42;1.70;;;17.70;99.90;;;;;;5029907;28;20033;-64
2023/07/28 01:58:09;;;;;;;5.00;1.90;;;17.80;99.90;;;;;;5034496;28;20033;-63
2023/07/28 02:00:35;;;;;;;3.22;1.50;;;17.80;99.90;;;;;;5031671;28;20029;-62
2023/07/28 02:03:03;;;;;;;4.57;1.60;;;17.80;99.90;;;;;;5038133;28;20036;-65
2023/07/28 02:05:30;;;;;;;4.93;1.70;;;17.80;99.90;;;;;;5033947;28;20508;-62
2023/07/28 02:07:56;;;;;;;2.38;1.13;;;17.80;99.90;;;;;;5031310;28;20030;-64
2023/07/28 02:10:27;;;;;;;1.50;1.17;;;17.80;99.90;;;;;;5031276;28;20398;-65
2023/07/28 02:12:52;;;;;;;3.30;1.40;;;17.90;99.90;;;;;;5032699;28;20456;-65
2023/07/28 02:15:18;;;;;;;3.65;1.40;;;17.90;99.90;;;;;;5029484;28;20044;-64
2023/07/28 02:17:44;;;;;;;3.85;1.75;;;17.90;99.90;;;;;;5028542;28;20022;-65
2023/07/28 02:20:12;;;;;;;2.15;1.73;;;17.90;99.90;;;;;;5031920;28;20034;-64
2023/07/28 02:22:42;;;;;;;5.00;1.88;;;17.90;99.90;;;;;;5033633;28;20030;-64
2023/07/28 02:25:07;;;;;;;4.03;1.80;;;17.90;99.90;;;;;;5031009;28;20034;-64
2023/07/28 02:27:33;;;;;;;3.20;1.65;;;18.00;99.90;;;;;;5027872;28;20033;-65
2023/07/28 02:29:59;;;;;;;6.55;1.70;;;17.90;99.90;;;;;;5032155;28;20104;-65
2023/07/28 02:32:24;;;;;;;3.20;1.10;;;18.00;99.90;;;;;;5031980;28;20087;-63
2023/07/28 02:34:50;;;;;;;2.33;1.17;;;17.90;99.90;;;;;;5034766;28;20018;-63
2023/07/28 02:37:16;;;;;;;4.90;1.13;;;18.00;99.90;;;;;;5030131;28;20032;-63
2023/07/28 02:39:42;;;;;;;3.38;1.00;;;17.90;99.90;;;;;;5030834;28;20028;-64
2023/07/28 02:42:07;;;;;;;2.00;0.75;;;17.90;99.90;;;;;;5033627;28;20485;-63
2023/07/28 02:44:33;;;;;;;3.10;1.30;;;17.90;99.90;;;;;;5034651;28;20034;-64
2023/07/28 02:46:58;;;;;;;1.52;1.27;;;17.90;99.90;;;;;;5031233;28;20133;-63
2023/07/28 02:49:24;;;;;;;1.00;0.85;;;17.90;99.90;;;;;;5034282;28;20045;-63
2023/07/28 02:51:50;;;;;;;4.03;0.90;;;17.90;99.90;;;;;;5032110;28;20104;-63
2023/07/28 02:54:15;;;;;;;0.95;0.60;;;17.90;99.90;;;;;;5049100;28;20028;-64
2023/07/28 02:56:41;;;;;;;2.63;0.70;;;18.00;99.90;;;;;;5035172;28;20030;-63
2023/07/28 02:59:06;;;;;;;4.55;0.70;;;17.90;99.90;;;;;;5039089;28;20030;-63
2023/07/28 03:01:33;;;;;;;1.17;0.70;;;17.90;99.90;;;;;;5035674;28;20025;-63
2023/07/28 03:04:00;;;;;;;0.90;0.70;;;17.90;99.90;;;;;;5034111;28;20037;-63
2023/07/28 03:06:25;;;;;;;2.15;0.70;;;17.90;99.90;;;;;;5037610;28;20025;-63
2023/07/28 03:08:51;;;;;;;0.88;0.60;;;17.90;99.90;;;;;;5034459;28;20526;-64
2023/07/28 03:11:16;;;;;;;1.45;0.70;;;17.90;99.90;;;;;;5033492;28;20448;-63
2023/07/28 03:13:42;;;;;;;4.55;0.70;;;17.90;99.90;;;;;;5035044;28;20061;-64
2023/07/28 03:16:07;;;;;;;3.88;0.70;;;18.00;99.90;;;;;;5030486;28;20033;-63
2023/07/28 03:18:33;;;;;;;0.77;0.63;;;17.90;99.90;;;;;;5033084;28;20400;-63
2023/07/28 03:20:58;;;;;;;4.55;0.73;;;18.00;99.90;;;;;;5030311;28;20029;-64
2023/07/28 03:23:24;;;;;;;1.85;0.77;;;18.00;99.90;;;;;;5034472;28;20036;-63
2023/07/28 03:25:49;;;;;;;1.85;1.13;;;18.00;99.90;;;;;;5031140;28;20033;-63
2023/07/28 03:28:15;;;;;;;0.95;0.85;;;18.00;99.90;;;;;;5032382;28;20046;-62
2023/07/28 03:30:40;;;;;;;2.58;0.90;;;18.00;99.90;;;;;;5034187;28;20033;-63
2023/07/28 03:33:06;;;;;;;2.33;0.82;;;18.00;99.90;;;;;;5033404;28;20047;-61
2023/07/28 03:35:31;;;;;;;4.57;0.80;;;18.00;99.90;;;;;;5032181;28;20076;-64
2023/07/28 03:37:57;;;;;;;4.82;1.20;;;18.00;99.90;;;;;;5031728;28;20080;-63
2023/07/28 03:40:22;;;;;;;1.83;0.75;;;18.00;99.90;;;;;;5036985;28;20041;-63
2023/07/28 03:42:48;;;;;;;3.65;1.05;;;18.00;99.90;;;;;;5040497;28;20025;-63
2023/07/28 03:45:13;;;;;;;4.43;1.10;;;17.90;99.90;;;;;;5031809;28;21024;-62
2023/07/28 03:47:39;;;;;;;3.95;0.80;;;18.00;99.90;;;;;;5031202;28;20492;-62
2023/07/28 03:50:05;;;;;;;3.10;1.13;;;18.00;99.90;;;;;;5031523;28;20025;-62
2023/07/28 03:52:31;;;;;;;1.58;1.00;;;18.00;99.90;;;;;;5032030;28;20029;-63
2023/07/28 03:54:56;;;;;;;1.80;1.08;;;18.00;99.90;;;;;;5030049;28;20132;-62
2023/07/28 03:57:22;;;;;;;1.55;0.90;;;18.00;99.90;;;;;;5030391;28;20060;-64
2023/07/28 03:59:47;;;;;;;3.33;1.00;;;18.00;99.90;;;;;;5033126;28;20017;-63
2023/07/28 04:02:13;;;;;;;4.05;1.05;;;18.00;99.90;;;;;;5031766;28;20036;-63
2023/07/28 04:04:38;;;;;;;1.77;1.20;;;18.00;99.90;;;;;;5032137;28;20038;-63
2023/07/28 04:07:04;;;;;;;1.77;0.80;;;18.00;99.90;;;;;;5029135;28;20025;-63
2023/07/28 04:09:30;;;;;;;4.97;0.90;;;18.00;99.90;;;;;;5031391;28;20451;-64
2023/07/28 04:11:55;;;;;;;1.35;0.82;;;18.00;99.90;;;;;;5031595;28;20033;-63
2023/07/28 04:14:21;;;;;;;2.47;0.85;;;18.00;99.90;;;;;;5031733;28;20563;-63
2023/07/28 04:16:47;;;;;;;6.20;1.00;;;18.00;99.90;;;;;;5030460;28;20513;-63
2023/07/28 04:19:12;;;;;;;2.08;0.90;;;18.00;99.90;;;;;;5031720;28;20120;-64
2023/07/28 04:21:41;;;;;;;3.25;0.95;;;18.00;99.90;;;;;;5029536;28;20489;-61
2023/07/28 04:24:10;;;;;;;1.85;0.90;;;18.00;99.90;;;;;;5030661;28;20029;-61
2023/07/28 04:26:35;;;;;;;4.70;1.00;;;18.00;99.90;;;;;;5031634;28;20029;-63
2023/07/28 04:29:01;;;;;;;1.35;0.77;;;18.00;99.90;;;;;;5031439;28;20060;-64
2023/07/28 04:31:27;;;;;;;2.42;1.13;;;18.00;99.90;;;;;;5035808;28;20075;-63
2023/07/28 04:33:52;;;;;;;1.98;1.15;;;18.00;99.90;;;;;;5032806;28;20046;-64
2023/07/28 04:36:18;;;;;;;3.13;1.08;;;18.00;99.90;;;;;;5029253;28;20033;-64
2023/07/28 04:38:43;;;;;;;3.35;1.20;;;18.10;99.90;;;;;;5031185;28;20397;-64
2023/07/28 04:41:09;;;;;;;1.77;1.10;;;18.10;99.90;;;;;;5031803;28;20076;-64
2023/07/28 04:43:34;;;;;;;5.57;1.63;;;18.10;99.90;;;;;;5031523;28;20056;-63
2023/07/28 04:46:00;;;;;;;7.30;1.73;;;18.10;99.90;;;;;;5030893;28;20029;-64
2023/07/28 04:48:26;;;;;;;2.60;1.60;;;18.10;99.90;;;;;;5032121;28;20127;-63
2023/07/28 04:50:52;;;;;;;1.40;1.30;;;18.10;99.90;;;;;;5029829;28;20473;-63
2023/07/28 04:53:18;;;;;;;5.18;1.83;;;18.10;99.90;;;;;;5030233;28;20079;-63
2023/07/28 04:55:43;;;;;;;2.75;1.50;;;18.10;99.90;;;;;;5034353;28;20067;-64
2023/07/28 04:58:09;;;;;;;2.67;1.23;;;18.10;99.90;;;;;;5036891;28;20080;-64
2023/07/28 05:00:34;;;;;;;3.33;1.52;;;18.20;99.90;;;;;;5033727;28;20036;-64
2023/07/28 05:03:00;;;;;;;6.20;2.35;;;18.20;99.90;;;;;;5029492;28;20083;-64
2023/07/28 05:05:25;;;;;;;9.63;2.33;;;18.20;99.90;;;;;;5030771;28;20449;-62
2023/07/28 05:07:51;;;;;;;4.22;2.47;;;18.20;99.90;;;;;;5029628;28;20037;-63
2023/07/28 05:10:16;;;;;;;8.35;2.55;;;18.20;99.90;;;;;;5035930;28;20623;-64
2023/07/28 05:12:42;;;;;;;7.03;2.50;;;18.30;99.90;;;;;;5033314;28;20025;-64
2023/07/28 05:15:11;;;;;;;7.20;2.00;;;18.30;99.90;;;;;;5041463;28;20070;-64
2023/07/28 05:17:37;;;;;;;6.85;2.53;;;18.30;99.90;;;;;;5034087;28;20083;-64
2023/07/28 05:20:03;;;;;;;8.63;2.35;;;18.30;99.90;;;;;;5034104;28;20037;-64
2023/07/28 05:22:29;;;;;;;8.93;2.65;;;18.30;99.90;;;;;;5031367;28;20033;-62
2023/07/28 05:24:54;;;;;;;13.52;3.30;;;18.40;99.90;;;;;;5028825;28;20087;-64
2023/07/28 05:27:20;;;;;;;9.40;3.30;;;18.30;99.90;;;;;;5031164;28;20029;-64
2023/07/28 05:29:45;;;;;;;9.73;2.60;;;18.40;99.90;;;;;;5033519;28;20022;-64
2023/07/28 05:32:11;;;;;;;9.90;2.85;;;18.40;99.90;;;;;;5035655;28;20500;-64
2023/07/28 05:34:36;;;;;;;4.32;2.25;;;18.40;99.90;;;;;;5025270;28;20132;-63
2023/07/28 05:37:02;;;;;;;4.05;2.40;;;18.40;99.90;;;;;;5028303;28;20448;-61
2023/07/28 05:39:27;;;;;;;3.42;1.80;;;18.50;99.90;;;;;;5033943;28;20052;-63
2023/07/28 05:41:53;;;;;;;4.28;1.75;;;18.50;99.90;;;;;;5039173;28;20036;-63
2023/07/28 05:44:19;;;;;;;3.03;1.70;;;18.50;99.90;;;;;;5037553;28;20053;-64
2023/07/28 05:46:45;;;;;;;4.10;1.80;;;18.50;99.90;;;;;;5037566;28;20055;-60
2023/07/28 05:49:11;;;;;;;5.93;1.75;;;18.50;99.90;;;;;;5037435;28;20040;-60
2023/07/28 05:51:36;;;;;;;7.43;2.05;;;18.60;99.90;;;;;;5033986;28;20021;-58
2023/07/28 05:54:02;;;;;;;1.95;1.20;;;18.60;99.90;;;;;;5030303;28;20021;-62
2023/07/28 05:56:27;;;;;;;4.82;1.40;;;18.70;99.90;;;;;;5033646;28;20108;-62
2023/07/28 05:58:53;;;;;;;8.45;1.30;;;18.70;99.90;;;;;;5031141;28;20037;-62
2023/07/28 06:01:19;;;;;;;6.50;1.27;;;18.70;99.90;;;;;;5035526;28;20573;-61
2023/07/28 06:03:44;;;;;;;9.55;1.13;;;18.80;99.90;;;;;;5037008;28;20029;-61
2023/07/28 06:06:10;;;;;;;4.57;1.13;;;18.70;99.90;;;;;;5035591;28;20033;-63
2023/07/28 06:08:36;;;;;;;4.15;1.20;;;18.70;99.90;;;;;;5035436;28;20034;-61
2023/07/28 06:11:05;;;;;;;2.33;1.13;;;18.70;99.90;;;;;;5034434;28;20018;-60
2023/07/28 06:13:30;;;;;;;9.98;5.43;;;18.70;99.90;;;;;;5035672;28;20027;-58
2023/07/28 06:15:58;;;;;;;8.50;1.77;;;18.80;99.90;;;;;;5038076;28;20397;-60
2023/07/28 06:18:23;;;;;;;5.25;1.40;;;18.70;99.90;;;;;;5041130;28;20091;-59
2023/07/28 06:20:49;;;;;;;4.45;2.13;;;18.70;99.90;;;;;;5037420;28;20428;-59
2023/07/28 06:23:14;;;;;;;4.13;1.27;;;18.70;99.90;;;;;;5032975;28;20060;-62
2023/07/28 06:25:43;;;;;;;2.92;1.67;;;18.70;99.90;;;;;;5036500;28;20037;-59
2023/07/28 06:28:10;;;;;;;7.25;2.10;;;18.70;99.90;;;;;;5032522;28;20014;-61
2023/07/28 06:30:37;;;;;;;1.77;0.98;;;18.70;99.90;;;;;;5030176;28;20027;-60
2023/07/28 06:33:03;;;;;;;3.05;1.00;;;18.70;99.90;;;;;;5041123;28;20092;-62
2023/07/28 06:35:28;;;;;;;3.08;1.20;;;18.60;99.90;;;;;;5041162;28;20080;-61
2023/07/28 06:37:54;;;;;;;2.63;0.93;;;18.70;99.90;;;;;;5031759;28;20029;-61
2023/07/28 06:40:20;;;;;;;2.47;0.77;;;18.60;99.90;;;;;;5039525;28;20029;-63
2023/07/28 06:42:46;;;;;;;2.60;0.90;;;18.60;99.90;;;;;;5039614;28;20031;-62
2023/07/28 06:45:12;;;;;;;2.65;0.93;;;18.60;99.90;;;;;;5037498;28;20036;-60
2023/07/28 06:47:38;;;;;;;1.02;0.82;;;18.70;99.90;;;;;;5030832;28;20497;-60
2023/07/28 06:50:05;;;;;;;3.30;0.80;;;18.70;99.90;;;;;;5038263;28;20025;-62
2023/07/28 06:52:30;;;;;;;4.82;1.00;;;18.70;99.90;;;;;;5030302;28;20021;-63
2023/07/28 06:54:56;;;;;;;0.95;0.75;;;18.70;99.90;;;;;;5037232;28;20044;-59
2023/07/28 06:57:21;;;;;;;1.98;1.00;;;18.70;99.90;;;;;;5032808;28;20108;-62
2023/07/28 06:59:48;;;;;;;3.00;1.02;;;18.60;99.90;;;;;;5033375;28;20034;-63
2023/07/28 07:02:13;;;;;;;1.48;0.75;;;18.70;99.90;;;;;;5038244;28;20034;-62
2023/07/28 07:04:39;;;;;;;1.50;1.25;;;18.70;99.90;;;;;;5036313;28;20083;-61
2023/07/28 07:07:05;;;;;;;2.50;1.00;;;18.70;99.90;;;;;;5035514;28;20523;-61
2023/07/28 07:09:30;;;;;;;4.20;1.10;;;18.80;99.90;;;;;;5041598;28;20030;-61
2023/07/28 07:11:56;;;;;;;5.18;1.30;;;18.80;99.90;;;;;;5038486;28;20053;-63
2023/07/28 07:14:22;;;;;;;1.38;1.05;;;18.80;99.90;;;;;;5031675;28;20030;-62
2023/07/28 07:16:49;;;;;;;1.52;1.23;;;18.80;99.90;;;;;;5039482;28;20023;-63
2023/07/28 07:19:15;;;;;;;4.13;1.48;;;18.90;99.90;;;;;;5036799;28;20065;-61
2023/07/28 07:21:41;;;;;;;3.30;1.17;;;18.90;99.90;;;;;;5035527;28;20742;-62
2023/07/28 07:24:07;;;;;;;1.88;1.40;;;19.00;99.90;;;;;;5027638;28;20160;-62
2023/07/28 07:26:32;;;;;;;1.70;1.50;;;19.00;99.90;;;;;;5035280;28;20100;-63
2023/07/28 07:28:58;;;;;;;7.32;2.15;;;19.10;99.90;;;;;;5041024;28;20497;-62
2023/07/28 07:31:24;;;;;;;4.97;2.40;;;19.10;99.90;;;;;;5040232;28;20026;-62
2023/07/28 07:33:50;;;;;;;3.22;1.67;;;19.00;99.90;;;;;;5031157;28;20064;-63
2023/07/28 07:36:17;;;;;;;6.85;1.70;;;19.10;99.90;;;;;;5036487;28;20431;-62
2023/07/28 07:38:45;;;;;;;1.85;1.50;;;19.00;99.90;;;;;;5033604;28;20131;-59
2023/07/28 07:41:12;;;;;;;2.30;1.70;;;19.00;99.90;;;;;;5033006;28;20511;-62
2023/07/28 07:43:38;;;;;;;3.00;1.60;;;19.00;99.90;;;;;;5032299;28;20025;-61
2023/07/28 07:46:04;;;;;;;2.85;1.80;;;19.00;99.90;;;;;;5033406;28;20485;-60
2023/07/28 07:48:30;;;;;;;5.10;2.65;;;19.00;99.90;;;;;;5042244;28;20042;-61
2023/07/28 07:50:55;;;;;;;2.90;2.10;;;18.90;99.90;;;;;;5035019;28;20029;-61
2023/07/28 07:53:21;;;;;;;6.38;2.20;;;19.00;99.90;;;;;;5031107;28;20787;-61
2023/07/28 07:55:47;;;;;;;3.70;1.70;;;19.10;99.90;;;;;;5044458;28;20041;-62
2023/07/28 07:58:12;;;;;;;2.53;1.98;;;19.20;99.90;;;;;;5032942;28;20035;-62
2023/07/28 08:00:38;;;;;;;2.50;2.28;;;19.20;99.90;;;;;;5033465;28;20424;-62
2023/07/28 08:03:05;;;;;;;5.13;2.88;;;19.30;99.90;;;;;;5029603;28;20025;-62
2023/07/28 08:05:30;;;;;;;5.68;2.05;;;19.40;99.90;;;;;;5033185;28;20029;-61
2023/07/28 08:07:56;;;;;;;2.97;2.20;;;19.30;99.90;;;;;;5038872;28;20104;-62
2023/07/28 08:10:22;;;;;;;3.63;2.17;;;19.50;99.90;;;;;;5039209;28;20032;-62
2023/07/28 08:12:48;;;;;;;2.78;2.08;;;19.60;99.90;;;;;;5032341;28;20026;-61
2023/07/28 08:15:14;;;;;;;2.25;2.05;;;19.70;99.90;;;;;;5036262;28;20075;-61
2023/07/28 08:17:39;;;;;;;2.90;2.38;;;19.80;99.90;;;;;;5034289;28;20025;-61
2023/07/28 08:20:06;;;;;;;2.35;1.90;;;19.90;99.90;;;;;;5047510;28;20049;-61
2023/07/28 08:22:32;;;;;;;2.35;1.90;;;19.90;99.90;;;;;;5035696;28;20074;-60
2023/07/28 08:24:58;;;;;;;3.20;2.38;;;20.10;99.90;;;;;;5031797;28;20477;-62
2023/07/28 08:27:24;;;;;;;3.20;1.80;;;20.20;99.90;;;;;;5029532;28;20032;-60
2023/07/28 08:29:49;;;;;;;3.25;1.98;;;20.20;99.90;;;;;;5028708;28;20060;-63
2023/07/28 08:32:15;;;;;;;2.92;1.83;;;20.20;99.90;;;;;;5028530;28;20116;-62
2023/07/28 08:34:40;;;;;;;2.22;2.00;;;20.30;99.90;;;;;;5044660;28;20074;-61
2023/07/28 08:37:06;;;;;;;2.85;1.70;;;20.20;99.90;;;;;;5032277;28;20033;-60
2023/07/28 08:39:32;;;;;;;1.55;1.45;;;20.30;99.90;;;;;;5028917;28;20038;-62
2023/07/28 08:42:03;;;;;;;4.90;1.90;;;20.10;99.90;;;;;;5034255;28;20062;-62
2023/07/28 08:44:31;;;;;;;1.55;1.45;;;20.30;99.90;;;;;;5026224;28;20116;-59
2023/07/28 08:46:57;;;;;;;1.75;1.27;;;20.30;99.90;;;;;;5032406;28;20032;-62
2023/07/28 08:49:23;;;;;;;1.42;1.20;;;20.40;99.90;;;;;;5030291;28;20106;-61
2023/07/28 08:51:50;;;;;;;1.55;1.30;;;20.40;99.90;;;;;;5032884;28;20061;-63
2023/07/28 08:54:16;;;;;;;1.10;0.90;;;20.40;99.90;;;;;;5026954;28;20459;-62
2023/07/28 08:56:43;;;;;;;3.00;1.52;;;20.50;99.90;;;;;;5030961;28;20021;-62
2023/07/28 08:59:09;;;;;;;5.40;1.42;;;20.40;99.90;;;;;;5029057;28;20041;-62
2023/07/28 09:01:43;;;;;;;2.30;1.30;;;20.60;99.90;;;;;;5033142;28;20021;-62
2023/07/28 09:04:12;;;;;;;3.88;1.45;;;20.70;99.90;;;;;;5031699;28;20036;-60
2023/07/28 09:06:38;;;;;;;4.70;1.55;;;20.70;99.90;;;;;;5031402;28;20035;-59
2023/07/28 09:09:07;;;;;;;2.90;1.70;;;20.80;99.90;;;;;;5032974;28;20125;-62
2023/07/28 09:11:32;;;;;;;3.72;1.90;;;20.90;99.90;;;;;;5029180;28;20030;-62
2023/07/28 09:14:00;;;;;;;4.25;1.90;;;20.90;99.90;;;;;;5032757;28;20029;-61
2023/07/28 09:16:26;;;;;;;2.35;1.33;;;21.10;99.90;;;;;;5027545;28;20044;-63
2023/07/28 09:19:07;;;;;;;3.22;1.55;;;21.20;99.90;;;;;;5029485;28;20033;-62
2023/07/28 09:21:32;;;;;;;1.73;1.30;;;21.40;99.90;;;;;;5034966;28;20508;-61
2023/07/28 09:24:01;;;;;;;4.78;1.70;;;21.50;99.90;;;;;;5035158;28;20061;-62
2023/07/28 09:26:38;;;;;;;1.00;0.93;;;21.60;99.90;;;;;;5031539;28;20382;-61
2023/07/28 09:29:12;;;;;;;2.47;1.73;;;21.50;99.90;;;;;;5028053;28;20497;-61
2023/07/28 09:31:38;;;;;;;2.80;1.60;;;21.40;99.90;;;;;;5029486;28;20026;-63
2023/07/28 09:34:08;;;;;;;1.63;0.90;;;21.50;99.90;;;;;;5033698;28;20024;-62
2023/07/28 09:36:34;;;;;;;2.88;1.20;;;21.60;99.90;;;;;;5025540;28;20063;-62
2023/07/28 09:39:02;;;;;;;5.60;1.67;;;21.70;99.90;;;;;;5027021;28;20412;-61
2023/07/28 09:41:30;;;;;;;1.17;0.82;;;21.70;99.90;;;;;;5026216;28;20667;-61
2023/07/28 09:43:57;;;;;;;3.22;1.05;;;21.70;99.90;;;;;;5028566;28;20094;-59
2023/07/28 09:46:24;;;;;;;1.20;0.80;;;21.60;99.90;;;;;;5026222;28;20099;-62
2023/07/28 09:48:54;;;;;;;1.35;1.13;;;21.70;99.90;;;;;;5030167;28;20480;-62
2023/07/28 09:51:21;;;;;;;1.40;1.15;;;21.80;99.90;;;;;;5037533;28;20021;-62
2023/07/28 09:53:55;;;;;;;4.07;0.90;;;21.90;99.90;;;;;;5027239;28;20714;-62
2023/07/28 09:56:23;;;;;;;4.32;1.10;;;21.90;99.90;;;;;;5029949;28;20075;-62
2023/07/28 09:58:53;;;;;;;1.60;1.10;;;21.80;99.90;;;;;;5026700;28;20069;-61
2023/07/28 10:01:23;;;;;;;2.30;1.00;;;21.80;99.90;;;;;;5027028;28;20032;-62
2023/07/28 10:03:49;;;;;;;1.13;0.95;;;21.90;99.90;;;;;;5020676;28;20056;-61
2023/07/28 10:06:19;;;;;;;1.15;1.05;;;21.90;99.90;;;;;;5026476;28;20493;-62
2023/07/28 10:08:45;;;;;;;1.38;1.20;;;21.90;99.90;;;;;;5029975;28;20030;-63
2023/07/28 10:11:14;;;;;;;1.10;1.00;;;22.00;99.90;;;;;;5029481;28;20033;-61
2023/07/28 10:13:44;;;;;;;2.00;1.27;;;21.90;99.90;;;;;;5030076;28;20068;-62
2023/07/28 10:16:10;;;;;;;2.97;1.42;;;22.00;99.90;;;;;;5029307;28;20025;-61
2023/07/28 10:18:36;;;;;;;2.53;0.95;;;22.10;99.90;;;;;;5026982;28;20053;-62
2023/07/28 10:21:20;;;;;;;0.95;0.95;;;22.30;99.90;;;;;;5025614;28;20025;-62
2023/07/28 10:23:55;;;;;;;3.50;0.90;;;22.30;99.90;;;;;;5023472;28;20026;-63
2023/07/28 10:26:44;;;;;;;0.90;0.90;;;22.40;99.90;;;;;;5024739;28;20515;-62
2023/07/28 10:29:11;;;;;;;1.38;0.73;;;22.50;99.90;;;;;;5028600;28;20504;-62
2023/07/28 10:31:37;;;;;;;2.08;1.10;;;22.40;99.90;;;;;;5028532;28;20700;-62
2023/07/28 10:34:03;;;;;;;0.93;0.90;;;22.40;99.90;;;;;;5026699;28;20024;-61
2023/07/28 10:36:28;;;;;;;1.05;0.80;;;22.50;99.90;;;;;;5029831;28;20025;-61
2023/07/28 10:39:17;;;;;;;3.47;0.95;;;22.60;99.90;;;;;;5034113;28;20031;-61
2023/07/28 10:42:09;;;;;;;1.48;0.77;;;22.50;99.90;;;;;;5032318;28;20025;-60
2023/07/28 10:44:36;;;;;;;0.60;0.60;;;22.50;99.90;;;;;;5021363;28;20562;-61
2023/07/28 10:47:02;;;;;;;4.18;0.80;;;22.60;99.90;;;;;;5026660;28;20071;-62
2023/07/28 10:49:28;;;;;;;0.60;0.60;;;22.70;99.90;;;;;;5033068;28;20021;-62
2023/07/28 10:51:54;;;;;;;4.60;2.60;;;22.70;99.90;;;;;;5028348;28;20021;-61
2023/07/28 10:54:20;;;;;;;1.95;1.10;;;22.80;99.90;;;;;;5029945;28;20584;-59
2023/07/28 10:56:47;;;;;;;1.08;0.70;;;23.00;99.90;;;;;;5029912;28;20079;-60
2023/07/28 10:59:12;;;;;;;0.57;0.57;;;23.00;99.90;;;;;;5023975;28;20037;-60
2023/07/28 11:01:40;;;;;;;1.90;0.43;;;23.20;99.90;;;;;;5029292;28;20033;-62
2023/07/28 11:04:06;;;;;;;0.40;0.40;;;23.40;99.90;;;;;;5030575;28;20076;-62
2023/07/28 11:06:32;;;;;;;1.83;0.60;;;23.50;99.90;;;;;;5037659;28;20052;-60
2023/07/28 11:08:58;;;;;;;1.05;0.77;;;23.50;99.90;;;;;;5027263;28;20021;-58
2023/07/28 11:11:23;;;;;;;1.20;0.80;;;23.40;99.90;;;;;;5030457;28;20043;-60
2023/07/28 11:13:49;;;;;;;0.60;0.60;;;23.30;99.90;;;;;;5031168;28;20393;-60
2023/07/28 11:16:15;;;;;;;0.60;0.60;;;23.10;99.90;;;;;;5037237;28;20420;-62
2023/07/28 11:18:40;;;;;;;0.77;0.50;;;22.90;99.90;;;;;;5035729;28;20033;-62
2023/07/28 11:21:06;;;;;;;0.50;0.50;;;22.80;99.90;;;;;;5031256;28;20049;-62
2023/07/28 11:23:31;;;;;;;0.30;0.30;;;22.70;99.90;;;;;;5030696;28;20083;-59
2023/07/28 11:25:58;;;;;;;0.85;0.60;;;22.70;99.90;;;;;;5026970;28;20191;-58
2023/07/28 11:28:24;;;;;;;3.47;0.75;;;22.80;99.90;;;;;;5031779;28;20079;-59
2023/07/28 11:30:50;;;;;;;1.00;0.80;;;22.90;99.90;;;;;;5033483;28;20056;-61
2023/07/28 11:33:17;;;;;;;1.30;0.57;;;23.00;99.90;;;;;;5029075;28;20048;-59
2023/07/28 11:35:44;;;;;;;0.60;0.60;;;23.00;99.90;;;;;;5036964;28;20053;-59
2023/07/28 11:38:10;;;;;;;42.60;4.53;;;22.90;99.90;;;;;;5035125;28;20025;-57
2023/07/28 11:40:37;;;;;;;10.20;1.17;;;23.00;99.90;;;;;;5032293;28;20385;-59
2023/07/28 11:43:03;;;;;;;2.75;1.33;;;22.90;99.90;;;;;;5032060;28;20732;-59
2023/07/28 11:45:30;;;;;;;6.82;1.10;;;22.90;99.90;;;;;;5034480;28;20029;-61
2023/07/28 11:47:57;;;;;;;5.53;1.10;;;22.70;99.90;;;;;;5037081;28;20108;-62
2023/07/28 11:50:42;;;;;;;0.98;0.70;;;22.50;99.90;;;;;;5038437;28;20068;-61
2023/07/28 11:53:09;;;;;;;4.10;1.83;;;22.40;99.90;;;;;;5030355;28;20033;-61
2023/07/28 11:55:36;;;;;;;6.65;1.10;;;22.30;99.90;;;;;;5034256;28;20561;-62
2023/07/28 11:58:04;;;;;;;4.63;1.20;;;22.40;99.90;;;;;;5030818;28;20040;-61
2023/07/28 12:00:35;;;;;;;1.00;0.90;;;22.70;99.90;;;;;;5029976;28;20079;-60
2023/07/28 12:03:04;;;;;;;1.40;0.80;;;23.00;99.90;;;;;;5035018;28;20025;-62
2023/07/28 12:05:30;;;;;;;1.33;0.75;;;23.40;99.90;;;;;;5035015;28;20022;-62
2023/07/28 12:07:56;;;;;;;3.13;0.60;;;24.00;99.90;;;;;;5032419;28;20453;-61
2023/07/28 12:10:22;;;;;;;1.20;0.70;;;24.20;99.90;;;;;;5031221;28;20076;-61
2023/07/28 12:12:48;;;;;;;2.83;1.65;;;24.30;99.90;;;;;;5031672;28;20033;-58
2023/07/28 12:15:23;;;;;;;1.88;1.05;;;24.50;99.90;;;;;;5029930;28;20104;-61
2023/07/28 12:18:01;;;;;;;1.38;0.90;;;24.30;99.90;;;;;;5035540;28;20021;-61
2023/07/28 12:20:26;;;;;;;0.95;0.50;;;24.30;99.90;;;;;;5031741;28;20068;-60
2023/07/28 12:22:52;;;;;;;3.85;1.20;;;24.40;99.90;;;;;;5036396;28;20671;-61
2023/07/28 12:25:17;;;;;;;1.95;0.80;;;24.20;99.90;;;;;;5028515;28;20033;-61
2023/07/28 12:27:43;;;;;;;1.08;0.93;;;24.10;99.90;;;;;;5035087;28;20060;-62
2023/07/28 12:30:10;;;;;;;0.73;0.73;;;24.00;99.90;;;;;;5029532;28;20040;-63
2023/07/28 12:32:36;;;;;;;4.25;0.50;;;23.90;99.90;;;;;;5032985;28;20024;-61
2023/07/28 12:35:01;;;;;;;0.40;0.40;;;23.70;99.90;;;;;;5031817;28;20025;-61
2023/07/28 12:37:27;;;;;;;0.55;0.40;;;23.70;99.90;;;;;;5028945;28;20029;-61
2023/07/28 12:39:52;;;;;;;0.40;0.40;;;23.70;99.90;;;;;;5028463;28;20044;-61
2023/07/28 12:42:19;;;;;;;3.13;0.40;;;23.60;99.90;;;;;;5036867;28;20025;-61